Terminal Aerodrome Forecast
Issued by NWS Cleveland, OH

Home | Current Version | Previous Version | Graphics & Text | Print | Product List | Glossary On
Versions: 1 2 3 4 5 6 7 8 9 10 11 12 13 14 15 16 17 18 19 20
000
FTUS41 KCLE 141700
TAFERI
TAF
KERI 141739Z 1418/1518 22014G22KT P6SM VCSH SCT035 OVC050
      TEMPO 1418/1422 3SM -SHRA BR SCT015 OVC025
     FM142200 23012G20KT 3SM -SHRA BR SCT015 OVC025
     FM150100 24012KT P6SM SCT025 OVC035
     FM150700 36012KT 3SM -SHRA BR SCT008 OVC015
     FM151000 34015G25KT 2SM -SN OVC008
     FM151700 31015G25KT 4SM -SHSN SCT008 OVC015=

USA.gov is the U.S. government's official web portal to all federal, state and local government web resources and services.